Terminal Aerodrome Forecast
Issued by NWS

Home | Current Version | Previous Version | Text Only | Print | Product List | Glossary On
Versions: 1 2 3 4 5 6 7 8 9 10 11 12
000
FTUS44 KEPZ 301727
TAFTCS
TAF
KTCS 301727Z 3018/0118 07008KT P6SM SCT070 SCT140 SCT250
     FM010300 18006KT P6SM FEW080 SCT250
     FM010800 26006KT P6SM FEW080 SCT250=

USA.gov is the U.S. government's official web portal to all federal, state and local government web resources and services.